createdAt,value
2023-02-18T00:03:15.679Z,60.90
2023-02-18T00:08:23.457Z,60.90
2023-02-18T00:13:30.757Z,60.90
2023-02-18T00:18:37.924Z,61.05
2023-02-18T00:23:45.022Z,60.72
2023-02-18T00:28:52.357Z,60.85
2023-02-18T00:33:59.636Z,60.84
2023-02-18T00:39:10.193Z,60.98
2023-02-18T00:44:17.864Z,60.98
2023-02-18T00:49:25.273Z,61.02
2023-02-18T00:54:32.784Z,60.91
2023-02-18T00:59:40.403Z,60.86
2023-02-18T01:04:47.885Z,60.81
2023-02-18T01:09:55.087Z,60.83
2023-02-18T01:15:02.141Z,60.83
2023-02-18T01:20:10.429Z,60.83
2023-02-18T01:25:17.480Z,60.81
2023-02-18T01:30:25.251Z,60.91
2023-02-18T01:35:32.536Z,60.85
2023-02-18T01:40:46.597Z,60.71
2023-02-18T01:45:59.293Z,60.77
2023-02-18T01:51:08.917Z,60.73
2023-02-18T01:56:18.462Z,60.71
2023-02-18T02:01:26.398Z,60.72
2023-02-18T02:06:33.901Z,60.47
2023-02-18T02:11:58.881Z,60.69
2023-02-18T02:17:10.057Z,60.25
2023-02-18T02:22:36.661Z,60.33
2023-02-18T02:27:59.711Z,60.41
2023-02-18T02:33:23.470Z,60.49
2023-02-18T02:38:32.949Z,60.43
2023-02-18T02:43:43.959Z,60.22
2023-02-18T02:48:54.001Z,60.10
2023-02-18T02:54:10.888Z,60.19
2023-02-18T02:59:20.917Z,60.36
2023-02-18T03:04:33.888Z,60.18
2023-02-18T03:09:46.228Z,60.26
2023-02-18T03:14:58.615Z,60.44
2023-02-18T03:20:11.038Z,60.27
2023-02-18T03:25:19.031Z,60.32
2023-02-18T03:30:27.844Z,60.36
2023-02-18T03:35:35.389Z,60.52
2023-02-18T03:40:42.856Z,60.15
2023-02-18T03:45:50.451Z,60.33
2023-02-18T03:50:57.741Z,60.22
2023-02-18T03:56:05.027Z,60.38
2023-02-18T04:01:12.277Z,60.36
2023-02-18T04:06:19.652Z,60.40
2023-02-18T04:11:26.972Z,60.48
2023-02-18T04:16:34.121Z,60.44
2023-02-18T04:21:41.361Z,60.31
2023-02-18T04:26:48.511Z,60.30
2023-02-18T04:31:55.766Z,60.41
2023-02-18T04:37:02.891Z,60.54
2023-02-18T04:42:10.764Z,60.50
2023-02-18T04:47:17.924Z,60.54
2023-02-18T04:52:25.133Z,60.22
2023-02-18T04:57:32.379Z,60.33
2023-02-18T05:02:39.850Z,60.48
2023-02-18T05:07:46.983Z,60.18
2023-02-18T05:12:53.852Z,60.15
2023-02-18T05:18:01.148Z,60.34
2023-02-18T05:23:08.688Z,60.15
2023-02-18T05:28:15.949Z,60.50
2023-02-18T05:33:23.161Z,60.02
2023-02-18T05:38:30.225Z,60.24
2023-02-18T05:43:57.626Z,60.24
2023-02-18T05:49:04.794Z,60.10
2023-02-18T05:54:12.246Z,60.24
2023-02-18T05:59:19.479Z,60.14
2023-02-18T06:04:27.075Z,60.39
2023-02-18T06:09:34.555Z,60.16
2023-02-18T06:14:42.724Z,60.33
2023-02-18T06:19:49.926Z,60.31
2023-02-18T06:24:57.294Z,60.30
2023-02-18T06:30:04.804Z,60.13
2023-02-18T06:35:12.087Z,60.07
2023-02-18T06:40:20.092Z,60.12
2023-02-18T06:45:27.349Z,59.95
2023-02-18T06:50:34.627Z,59.99
2023-02-18T06:55:42.350Z,59.96
2023-02-18T07:00:49.352Z,60.10
2023-02-18T07:05:56.271Z,59.90
2023-02-18T07:11:03.380Z,59.93
2023-02-18T07:16:11.131Z,60.02
2023-02-18T07:21:18.518Z,59.75
2023-02-18T07:26:25.849Z,60.10
2023-02-18T07:31:33.574Z,59.96
2023-02-18T07:36:40.808Z,60.00
2023-02-18T07:41:48.441Z,60.05
2023-02-18T07:46:55.978Z,59.77
2023-02-18T07:52:04.540Z,59.99
2023-02-18T07:57:13.197Z,59.88
2023-02-18T08:02:21.955Z,59.82
2023-02-18T08:07:29.299Z,59.89
2023-02-18T08:12:36.609Z,59.60
2023-02-18T08:17:43.802Z,59.96
2023-02-18T08:22:51.047Z,59.94
2023-02-18T08:27:58.058Z,59.80
2023-02-18T08:33:05.208Z,59.67
2023-02-18T08:38:12.229Z,59.67
2023-02-18T08:43:19.717Z,59.73
2023-02-18T08:48:27.053Z,59.28
2023-02-18T08:53:34.174Z,59.54
2023-02-18T08:58:41.410Z,59.57
2023-02-18T09:03:49.040Z,59.28
2023-02-18T09:08:56.324Z,58.88
2023-02-18T09:14:04.894Z,58.53
2023-02-18T09:19:12.311Z,58.52
2023-02-18T09:24:20.411Z,58.41
2023-02-18T09:29:27.800Z,58.60
2023-02-18T09:34:34.990Z,58.56
2023-02-18T09:39:42.029Z,58.49
2023-02-18T09:44:51.026Z,58.55
2023-02-18T09:50:00.724Z,58.57
2023-02-18T09:55:17.181Z,58.67
2023-02-18T10:00:27.091Z,58.50
2023-02-18T10:05:35.112Z,58.50
2023-02-18T10:10:43.903Z,58.44
2023-02-18T10:15:51.729Z,58.60
2023-02-18T10:21:06.337Z,58.57
2023-02-18T10:26:16.790Z,58.50
2023-02-18T10:31:28.051Z,58.42
2023-02-18T10:36:38.003Z,58.63
2023-02-18T10:41:51.622Z,58.68
2023-02-18T10:47:01.922Z,58.70
2023-02-18T10:52:09.041Z,58.72
2023-02-18T10:57:19.602Z,58.72
2023-02-18T11:02:27.520Z,58.70
2023-02-18T11:07:36.569Z,58.66
2023-02-18T11:12:46.335Z,58.78
2023-02-18T11:17:54.349Z,58.79
2023-02-18T11:23:14.657Z,58.69
2023-02-18T11:28:31.277Z,58.70
2023-02-18T11:33:40.629Z,58.53
2023-02-18T11:38:49.823Z,58.85
2023-02-18T11:43:57.088Z,58.80
2023-02-18T11:49:24.103Z,58.76
2023-02-18T11:54:32.770Z,58.69
2023-02-18T11:59:41.098Z,58.74
2023-02-18T12:04:49.566Z,58.72
2023-02-18T12:09:57.940Z,58.86
2023-02-18T12:15:05.699Z,58.97
2023-02-18T12:20:28.145Z,58.70
2023-02-18T12:25:43.125Z,58.79
2023-02-18T12:31:04.052Z,58.83
2023-02-18T12:36:17.953Z,58.70
2023-02-18T12:41:39.136Z,58.87
2023-02-18T12:46:56.608Z,58.76
2023-02-18T12:52:13.544Z,58.87
2023-02-18T12:57:31.115Z,58.86
2023-02-18T13:02:48.931Z,58.95
2023-02-18T13:08:05.438Z,58.91
2023-02-18T13:13:13.647Z,58.72
2023-02-18T13:18:22.434Z,59.03
2023-02-18T13:23:31.633Z,58.84
2023-02-18T13:28:42.365Z,58.78
2023-02-18T13:33:58.604Z,58.91
2023-02-18T13:39:08.027Z,58.98
2023-02-18T13:44:28.604Z,58.72
2023-02-18T13:49:36.252Z,58.90
2023-02-18T13:54:45.769Z,59.04
2023-02-18T13:59:54.470Z,59.04
2023-02-18T14:05:16.962Z,58.98
2023-02-18T14:10:33.291Z,58.77
2023-02-18T14:15:55.399Z,59.04
2023-02-18T14:21:20.983Z,58.81
2023-02-18T14:26:31.375Z,58.86
2023-02-18T14:31:44.289Z,58.84
2023-02-18T14:36:57.260Z,58.95
2023-02-18T14:42:08.281Z,59.02
2023-02-18T14:47:26.172Z,58.71
2023-02-18T14:52:35.103Z,58.94
2023-02-18T14:57:46.951Z,59.12
2023-02-18T15:02:55.191Z,58.96
2023-02-18T15:08:04.069Z,59.16
2023-02-18T15:13:16.940Z,58.97
2023-02-18T15:18:27.402Z,58.92
2023-02-18T15:23:37.994Z,59.03
2023-02-18T15:28:53.483Z,58.99
2023-02-18T15:34:00.960Z,59.22
2023-02-18T15:39:08.311Z,59.20
2023-02-18T15:44:22.440Z,59.38
2023-02-18T15:49:29.526Z,59.21
2023-02-18T15:54:39.223Z,59.14
2023-02-18T15:59:56.159Z,59.32
2023-02-18T16:05:05.406Z,59.28
2023-02-18T16:10:16.938Z,59.15
2023-02-18T16:15:27.529Z,59.07
2023-02-18T16:20:36.550Z,59.33
2023-02-18T16:25:45.886Z,59.16
2023-02-18T16:30:53.199Z,59.16
2023-02-18T16:36:00.529Z,59.37
2023-02-18T16:41:08.167Z,59.18
2023-02-18T16:46:18.087Z,59.52
2023-02-18T16:51:25.958Z,59.11
2023-02-18T16:56:34.140Z,59.35
2023-02-18T17:01:44.453Z,59.07
2023-02-18T17:06:51.751Z,59.28
2023-02-18T17:12:00.270Z,59.24
2023-02-18T17:17:13.245Z,59.36
2023-02-18T17:22:20.538Z,59.26
2023-02-18T17:27:27.954Z,59.18
2023-02-18T17:32:35.313Z,59.29
2023-02-18T17:37:42.549Z,59.10
2023-02-18T17:42:50.362Z,59.28
2023-02-18T17:47:57.977Z,59.40
2023-02-18T17:53:05.236Z,59.28
2023-02-18T17:58:12.955Z,59.51
2023-02-18T18:03:20.209Z,59.37
2023-02-18T18:08:27.392Z,59.15
2023-02-18T18:13:34.561Z,59.57
2023-02-18T18:18:41.683Z,59.33
2023-02-18T18:23:48.732Z,59.31
2023-02-18T18:28:55.746Z,59.31
2023-02-18T18:34:03.304Z,59.29
2023-02-18T18:39:10.603Z,59.44
2023-02-18T18:44:17.980Z,59.17
2023-02-18T18:49:25.547Z,58.98
2023-02-18T18:54:32.986Z,59.15
2023-02-18T18:59:40.177Z,59.17
2023-02-18T19:04:47.545Z,59.08
2023-02-18T19:09:54.688Z,59.02
2023-02-18T19:15:01.828Z,59.31
2023-02-18T19:20:09.662Z,59.00
2023-02-18T19:25:16.960Z,59.03
2023-02-18T19:30:24.726Z,59.16
2023-02-18T19:35:32.484Z,58.98
2023-02-18T19:40:40.940Z,59.10
2023-02-18T19:45:48.953Z,59.33
2023-02-18T19:50:56.363Z,59.16
2023-02-18T19:56:06.790Z,59.51
2023-02-18T20:01:17.562Z,59.09
2023-02-18T20:06:24.890Z,59.25
2023-02-18T20:11:33.219Z,59.16
2023-02-18T20:16:40.554Z,59.27
2023-02-18T20:21:47.659Z,59.11
2023-02-18T20:26:54.914Z,59.21
2023-02-18T20:32:02.438Z,59.21
2023-02-18T20:37:09.594Z,59.26
2023-02-18T20:42:17.212Z,59.46
2023-02-18T20:47:24.692Z,59.37
2023-02-18T20:52:34.473Z,59.48
2023-02-18T20:57:42.226Z,59.27
2023-02-18T21:02:49.620Z,59.38
2023-02-18T21:07:56.688Z,59.29
2023-02-18T21:13:03.907Z,59.53
2023-02-18T21:18:11.089Z,59.38
2023-02-18T21:23:18.324Z,59.44
2023-02-18T21:28:25.561Z,59.59
2023-02-18T21:33:32.799Z,59.46
2023-02-18T21:38:40.130Z,59.43
2023-02-18T21:43:48.171Z,59.67
2023-02-18T21:49:06.315Z,59.68
2023-02-18T21:54:13.831Z,59.74
2023-02-18T21:59:21.393Z,59.60
2023-02-18T22:04:29.213Z,59.67
2023-02-18T22:09:37.247Z,59.70
2023-02-18T22:14:44.847Z,59.80
2023-02-18T22:19:52.147Z,59.79
2023-02-18T22:24:59.424Z,59.71
2023-02-18T22:30:07.264Z,59.59
2023-02-18T22:35:16.574Z,59.95
2023-02-18T22:40:24.171Z,59.68
2023-02-18T22:45:31.302Z,59.76
2023-02-18T22:50:38.809Z,59.89
2023-02-18T22:55:46.208Z,59.80
2023-02-18T23:00:53.622Z,59.85
2023-02-18T23:06:04.946Z,59.91
2023-02-18T23:11:13.030Z,59.93
2023-02-18T23:16:22.749Z,59.84
2023-02-18T23:21:29.960Z,59.89
2023-02-18T23:26:36.983Z,59.82
2023-02-18T23:31:44.661Z,59.83
2023-02-18T23:36:51.961Z,59.88
2023-02-18T23:41:59.044Z,60.08
2023-02-18T23:47:06.470Z,60.06
2023-02-18T23:52:14.654Z,60.08
2023-02-18T23:57:21.784Z,60.34
